Time;durP1;ratioP1;P1;durP2;ratioP2;P2;SDS_P1;SDS_P2;PMS_P1;PMS_P2;Temp;Humidity;BMP_temperature;BMP_pressure;BME280_temperature;BME280_humidity;BME280_pressure;Samples;Min_cycle;Max_cycle;Signal;HPM_P1;HPM_P2
2021/05/04 00:01:17;;;;;;;9.70;5.30;;;11.10;74.60;;;;;;5036103;28;20415;-75
2021/05/04 00:03:43;;;;;;;12.80;5.80;;;11.00;75.20;;;;;;5040262;28;20124;-75
2021/05/04 00:06:09;;;;;;;9.95;5.32;;;10.90;75.70;;;;;;5037463;28;20056;-75
2021/05/04 00:08:35;;;;;;;10.85;5.82;;;10.80;76.30;;;;;;5039952;28;20040;-76
2021/05/04 00:11:01;;;;;;;10.82;6.38;;;10.70;76.50;;;;;;5037144;28;20035;-77
2021/05/04 00:13:26;;;;;;;11.18;5.93;;;10.70;77.20;;;;;;5040719;28;20512;-77
2021/05/04 00:15:52;;;;;;;10.63;6.05;;;10.60;76.90;;;;;;5039906;28;20044;-76
2021/05/04 00:18:17;;;;;;;11.68;5.63;;;10.60;77.20;;;;;;5051296;28;20041;-75
2021/05/04 00:20:43;;;;;;;9.60;5.20;;;10.50;76.60;;;;;;5055549;28;20067;-75
2021/05/04 00:23:09;;;;;;;8.32;5.55;;;10.50;76.40;;;;;;5057027;28;20036;-78
2021/05/04 00:25:34;;;;;;;9.45;5.03;;;10.40;76.00;;;;;;5057078;28;20037;-76
2021/05/04 00:28:00;;;;;;;10.18;5.43;;;10.40;75.90;;;;;;5042022;28;20033;-75
2021/05/04 00:30:26;;;;;;;11.30;5.10;;;10.30;76.20;;;;;;5038590;28;20045;-77
2021/05/04 00:32:51;;;;;;;8.77;4.65;;;10.30;75.80;;;;;;5038186;28;20449;-81
2021/05/04 00:35:17;;;;;;;7.45;5.13;;;10.20;76.00;;;;;;5046380;28;20036;-74
2021/05/04 00:37:43;;;;;;;8.82;4.90;;;10.10;76.20;;;;;;5055638;28;20082;-77
2021/05/04 00:40:09;;;;;;;11.20;5.20;;;10.20;76.40;;;;;;5056178;28;20029;-75
2021/05/04 00:42:35;;;;;;;9.90;4.65;;;10.10;75.90;;;;;;5043324;28;20041;-81
2021/05/04 00:45:00;;;;;;;7.22;4.50;;;10.10;75.80;;;;;;5057950;28;20053;-75
2021/05/04 00:47:26;;;;;;;8.60;4.55;;;10.10;76.80;;;;;;5074656;28;20040;-79
2021/05/04 00:49:52;;;;;;;8.40;4.78;;;10.10;76.60;;;;;;5057546;28;20442;-76
2021/05/04 00:52:17;;;;;;;10.25;4.70;;;10.00;76.40;;;;;;5053353;28;20029;-78
2021/05/04 00:54:44;;;;;;;9.90;4.60;;;10.00;76.50;;;;;;5056891;28;20044;-75
2021/05/04 00:57:11;;;;;;;10.10;4.90;;;10.10;76.80;;;;;;5054589;28;20036;-80
2021/05/04 00:59:37;;;;;;;10.00;4.90;;;9.90;76.90;;;;;;5059926;28;20121;-75
2021/05/04 01:02:03;;;;;;;9.07;4.70;;;9.90;77.50;;;;;;5059002;28;20037;-75
2021/05/04 01:04:31;;;;;;;7.40;4.60;;;9.90;77.70;;;;;;5057623;28;20163;-75
2021/05/04 01:06:56;;;;;;;11.15;4.35;;;9.80;77.30;;;;;;5056789;28;20055;-78
2021/05/04 01:09:22;;;;;;;8.07;4.40;;;9.90;77.00;;;;;;5056887;28;20033;-75
2021/05/04 01:11:48;;;;;;;8.05;4.57;;;9.90;77.00;;;;;;5065379;28;20041;-80
2021/05/04 01:14:14;;;;;;;8.48;3.72;;;9.90;76.20;;;;;;5063762;28;20052;-79
2021/05/04 01:16:46;;;;;;;7.65;3.80;;;9.90;76.00;;;;;;5061930;28;20021;-74
2021/05/04 01:19:11;;;;;;;7.63;4.45;;;9.90;75.80;;;;;;5049296;28;20037;-74
2021/05/04 01:21:37;;;;;;;7.72;3.97;;;9.90;75.30;;;;;;5035003;28;20033;-80
2021/05/04 01:24:03;;;;;;;7.55;3.95;;;9.90;76.00;;;;;;5034384;28;20338;-74
2021/05/04 01:26:29;;;;;;;6.45;3.95;;;9.90;75.50;;;;;;5036214;28;20037;-76
2021/05/04 01:28:55;;;;;;;8.68;3.90;;;10.00;75.50;;;;;;5037063;28;20052;-76
2021/05/04 01:31:20;;;;;;;6.75;3.75;;;10.00;75.30;;;;;;5032397;28;20069;-80
2021/05/04 01:33:46;;;;;;;6.85;3.55;;;10.00;74.80;;;;;;5037736;28;20037;-76
2021/05/04 01:36:12;;;;;;;8.60;4.00;;;10.00;74.70;;;;;;5037343;28;20029;-74
2021/05/04 01:38:37;;;;;;;5.35;3.30;;;10.00;75.10;;;;;;5034862;28;20045;-75
2021/05/04 01:41:03;;;;;;;8.80;3.45;;;10.10;74.10;;;;;;5032638;28;20542;-75
2021/05/04 01:43:29;;;;;;;7.32;3.35;;;10.10;74.30;;;;;;5035438;28;20041;-74
2021/05/04 01:45:55;;;;;;;5.72;3.40;;;10.10;73.90;;;;;;5035407;28;20042;-75
2021/05/04 01:48:20;;;;;;;6.20;3.55;;;10.10;73.70;;;;;;5033470;28;20040;-74
2021/05/04 01:50:46;;;;;;;7.65;3.65;;;10.10;73.90;;;;;;5037742;28;20349;-80
2021/05/04 01:53:12;;;;;;;6.53;3.40;;;10.10;73.60;;;;;;5038723;28;20128;-74
2021/05/04 01:55:38;;;;;;;5.97;3.30;;;10.20;73.50;;;;;;5036472;28;20437;-75
2021/05/04 01:58:03;;;;;;;6.88;3.15;;;10.10;73.20;;;;;;5035535;28;20082;-80
2021/05/04 02:00:29;;;;;;;6.05;3.47;;;10.20;72.90;;;;;;5037389;28;21013;-74
2021/05/04 02:02:55;;;;;;;7.30;3.10;;;10.30;73.40;;;;;;5034455;28;20036;-79
2021/05/04 02:05:20;;;;;;;4.53;2.60;;;10.30;73.00;;;;;;5035131;28;20065;-77
2021/05/04 02:07:46;;;;;;;8.00;2.92;;;10.30;72.90;;;;;;5033574;28;20045;-74
2021/05/04 02:10:12;;;;;;;6.60;2.95;;;10.30;73.50;;;;;;5039831;28;20037;-78
2021/05/04 02:12:42;;;;;;;5.03;2.60;;;10.40;73.60;;;;;;5035407;28;20033;-74
2021/05/04 02:15:09;;;;;;;6.53;3.15;;;10.40;74.30;;;;;;5034809;28;20035;-74
2021/05/04 02:17:35;;;;;;;7.22;2.55;;;10.40;73.90;;;;;;5036490;28;20049;-74
2021/05/04 02:20:01;;;;;;;9.00;2.80;;;10.50;73.70;;;;;;5039448;28;20476;-75
2021/05/04 02:22:26;;;;;;;11.00;3.03;;;10.40;73.70;;;;;;5038602;28;20037;-75
2021/05/04 02:24:52;;;;;;;6.63;2.70;;;10.50;73.80;;;;;;5040637;28;20041;-80
2021/05/04 02:27:17;;;;;;;5.78;2.55;;;10.50;73.60;;;;;;5041033;28;20029;-76
2021/05/04 02:29:43;;;;;;;6.15;2.67;;;10.60;73.40;;;;;;5047101;28;20056;-77
2021/05/04 02:32:09;;;;;;;7.53;2.65;;;10.60;73.50;;;;;;5040617;28;20053;-75
2021/05/04 02:34:34;;;;;;;6.60;2.97;;;10.60;73.40;;;;;;5042197;28;20045;-75
2021/05/04 02:37:00;;;;;;;4.30;2.63;;;10.60;73.30;;;;;;5049230;28;20063;-74
2021/05/04 02:39:26;;;;;;;6.78;2.72;;;10.70;73.40;;;;;;5060756;28;20082;-76
2021/05/04 02:41:51;;;;;;;6.00;2.30;;;10.70;74.30;;;;;;5059219;28;20119;-75
2021/05/04 02:44:17;;;;;;;4.38;2.10;;;10.70;74.70;;;;;;5057759;28;20151;-74
2021/05/04 02:46:43;;;;;;;4.93;2.20;;;10.60;76.20;;;;;;5056319;28;20036;-74
2021/05/04 02:49:08;;;;;;;5.32;2.60;;;10.60;76.70;;;;;;5059118;28;20477;-74
2021/05/04 02:51:34;;;;;;;6.43;2.45;;;10.50;76.20;;;;;;5058789;28;20383;-73
2021/05/04 02:53:59;;;;;;;5.47;2.10;;;10.60;76.40;;;;;;5061459;28;20676;-74
2021/05/04 02:56:25;;;;;;;5.05;2.30;;;10.60;76.10;;;;;;5055489;28;20596;-76
2021/05/04 02:58:51;;;;;;;5.13;2.20;;;10.60;75.60;;;;;;5057926;28;20039;-74
2021/05/04 03:01:17;;;;;;;4.97;2.25;;;10.60;75.40;;;;;;5059363;28;20035;-74
2021/05/04 03:03:43;;;;;;;5.55;2.95;;;10.60;76.40;;;;;;5063238;28;20040;-73
2021/05/04 03:06:09;;;;;;;5.63;2.67;;;10.60;77.70;;;;;;5059484;28;20028;-74
2021/05/04 03:08:35;;;;;;;7.18;2.60;;;10.50;78.00;;;;;;5060623;28;20033;-74
2021/05/04 03:11:01;;;;;;;5.80;2.83;;;10.50;78.20;;;;;;5045335;28;20083;-74
2021/05/04 03:13:31;;;;;;;5.70;2.50;;;10.40;77.80;;;;;;5049735;28;20044;-77
2021/05/04 03:15:57;;;;;;;6.10;2.55;;;10.50;77.80;;;;;;5060455;28;20033;-74
2021/05/04 03:18:23;;;;;;;5.88;2.60;;;10.40;77.60;;;;;;5058046;28;20468;-74
2021/05/04 03:20:49;;;;;;;11.27;2.72;;;10.40;77.80;;;;;;5059990;28;20074;-75
2021/05/04 03:23:16;;;;;;;4.47;2.30;;;10.50;77.00;;;;;;5062917;28;20131;-76
2021/05/04 03:25:42;;;;;;;4.93;2.33;;;10.50;77.40;;;;;;5060158;28;20037;-80
2021/05/04 03:28:09;;;;;;;8.10;3.00;;;10.60;77.10;;;;;;5058900;28;20043;-76
2021/05/04 03:30:35;;;;;;;9.05;2.60;;;10.60;77.20;;;;;;5055226;28;20392;-76
2021/05/04 03:33:01;;;;;;;5.68;2.67;;;10.60;77.40;;;;;;5059326;28;20047;-76
2021/05/04 03:35:26;;;;;;;7.10;2.78;;;10.60;78.00;;;;;;5060642;28;20028;-75
2021/05/04 03:37:52;;;;;;;6.07;2.65;;;10.60;78.60;;;;;;5062084;28;20033;-77
2021/05/04 03:40:18;;;;;;;7.90;2.70;;;10.50;79.60;;;;;;5056627;28;20480;-80
2021/05/04 03:42:44;;;;;;;8.30;2.80;;;10.40;80.60;;;;;;5049129;28;20124;-74
2021/05/04 03:45:13;;;;;;;5.53;3.10;;;10.30;81.80;;;;;;5039627;28;20120;-74
2021/05/04 03:47:41;;;;;;;6.05;2.90;;;10.20;82.30;;;;;;5045293;28;20040;-78
2021/05/04 03:50:09;;;;;;;6.18;3.38;;;10.10;83.30;;;;;;5039253;28;20087;-74
2021/05/04 03:52:35;;;;;;;6.10;3.65;;;10.00;83.90;;;;;;5043882;28;20037;-73
2021/05/04 03:55:02;;;;;;;7.53;3.85;;;10.00;84.50;;;;;;5043629;28;20120;-73
2021/05/04 03:57:28;;;;;;;7.53;3.70;;;9.90;85.00;;;;;;5050216;28;20029;-74
2021/05/04 03:59:54;;;;;;;7.25;4.18;;;9.90;85.20;;;;;;5051729;28;20047;-74
2021/05/04 04:02:20;;;;;;;9.93;4.45;;;9.80;85.30;;;;;;5043693;28;20037;-73
2021/05/04 04:04:45;;;;;;;7.65;3.35;;;9.70;85.70;;;;;;5044369;28;20036;-74
2021/05/04 04:07:11;;;;;;;8.88;4.13;;;9.70;85.80;;;;;;5048525;28;20060;-74
2021/05/04 04:09:37;;;;;;;8.75;3.90;;;9.70;85.70;;;;;;5053920;28;20120;-74
2021/05/04 04:12:02;;;;;;;7.03;3.55;;;9.70;85.80;;;;;;5049181;28;20098;-76
2021/05/04 04:14:28;;;;;;;6.18;3.70;;;9.70;86.00;;;;;;5054413;28;20119;-74
2021/05/04 04:16:54;;;;;;;8.65;4.10;;;9.70;86.20;;;;;;5039734;28;20052;-74
2021/05/04 04:19:19;;;;;;;8.40;4.10;;;9.70;86.60;;;;;;5050179;28;20036;-74
2021/05/04 04:21:48;;;;;;;8.48;4.00;;;9.70;86.30;;;;;;5048767;28;20039;-74
2021/05/04 04:24:14;;;;;;;9.63;3.70;;;9.70;86.40;;;;;;5061509;28;20039;-74
2021/05/04 04:26:39;;;;;;;9.82;4.18;;;9.70;86.70;;;;;;5040672;28;20030;-74
2021/05/04 04:29:05;;;;;;;10.05;4.10;;;9.70;86.30;;;;;;5037159;28;20496;-73
2021/05/04 04:31:31;;;;;;;7.82;3.67;;;9.70;86.30;;;;;;5036962;28;20054;-79
2021/05/04 04:33:56;;;;;;;13.60;3.95;;;9.80;86.40;;;;;;5039254;28;20390;-78
2021/05/04 04:36:22;;;;;;;11.80;3.53;;;9.80;86.10;;;;;;5038313;28;20033;-73
2021/05/04 04:38:48;;;;;;;15.05;3.70;;;9.80;85.70;;;;;;5041879;28;20523;-77
2021/05/04 04:41:13;;;;;;;12.07;3.40;;;9.80;85.50;;;;;;5043377;28;20060;-77
2021/05/04 04:43:39;;;;;;;16.30;3.97;;;10.00;84.80;;;;;;5042271;28;20503;-74
2021/05/04 04:46:05;;;;;;;15.60;3.83;;;10.00;84.40;;;;;;5038451;28;20044;-76
2021/05/04 04:48:30;;;;;;;18.23;3.92;;;10.10;83.40;;;;;;5044341;28;20025;-74
2021/05/04 04:50:56;;;;;;;15.65;3.92;;;10.10;83.50;;;;;;5033499;28;20361;-82
2021/05/04 04:53:21;;;;;;;16.75;3.85;;;10.10;83.60;;;;;;5037449;28;20059;-74
2021/05/04 04:55:47;;;;;;;15.40;3.92;;;10.10;83.00;;;;;;5041355;28;20033;-74
2021/05/04 04:58:12;;;;;;;15.75;4.25;;;10.20;82.00;;;;;;5036700;28;20037;-75
2021/05/04 05:00:38;;;;;;;21.90;4.38;;;10.30;81.80;;;;;;5037212;28;20040;-75
2021/05/04 05:03:04;;;;;;;16.67;3.70;;;10.30;81.50;;;;;;5038742;28;20040;-75
2021/05/04 05:05:30;;;;;;;20.17;4.40;;;10.30;80.90;;;;;;5041564;28;20025;-74
2021/05/04 05:07:55;;;;;;;27.60;5.13;;;10.40;80.80;;;;;;5040329;28;20034;-77
2021/05/04 05:10:21;;;;;;;18.13;4.07;;;10.40;80.30;;;;;;5040272;28;20472;-74
2021/05/04 05:12:47;;;;;;;22.65;3.95;;;10.40;80.20;;;;;;5036630;28;20395;-75
2021/05/04 05:15:14;;;;;;;20.55;4.50;;;10.40;80.00;;;;;;5037427;28;20049;-78
2021/05/04 05:17:40;;;;;;;19.55;4.00;;;10.50;80.20;;;;;;5035328;28;20032;-75
2021/05/04 05:20:06;;;;;;;21.63;4.78;;;10.50;80.30;;;;;;5041431;28;20380;-75
2021/05/04 05:22:32;;;;;;;17.60;4.45;;;10.40;80.00;;;;;;5044558;28;20028;-74
2021/05/04 05:24:58;;;;;;;18.00;4.13;;;10.40;80.10;;;;;;5043723;28;20366;-77
2021/05/04 05:27:25;;;;;;;23.08;4.40;;;10.40;80.50;;;;;;5037071;28;20057;-70
2021/05/04 05:29:51;;;;;;;23.83;4.78;;;10.30;80.90;;;;;;5040573;28;20106;-73
2021/05/04 05:32:16;;;;;;;21.60;5.05;;;10.30;81.30;;;;;;5038489;28;20431;-70
2021/05/04 05:34:42;;;;;;;22.00;4.50;;;10.20;81.90;;;;;;5037084;28;20091;-71
2021/05/04 05:37:08;;;;;;;20.98;5.30;;;10.10;82.70;;;;;;5031419;28;20029;-73
2021/05/04 05:39:42;;;;;;;21.65;5.43;;;10.10;83.50;;;;;;5033448;28;20520;-70
2021/05/04 05:42:08;;;;;;;24.40;6.15;;;10.00;84.10;;;;;;5040510;28;20495;-71
2021/05/04 05:44:34;;;;;;;22.50;5.15;;;10.00;84.60;;;;;;5045182;28;20061;-70
2021/05/04 05:46:59;;;;;;;25.85;5.32;;;10.00;84.70;;;;;;5063162;28;20048;-70
2021/05/04 05:49:25;;;;;;;23.20;5.70;;;10.00;84.50;;;;;;5059494;28;20044;-70
2021/05/04 05:51:51;;;;;;;24.33;6.07;;;10.10;84.50;;;;;;5061185;28;20394;-71
2021/05/04 05:54:16;;;;;;;16.15;4.72;;;10.10;84.10;;;;;;5062535;28;20041;-70
2021/05/04 05:56:42;;;;;;;20.67;4.70;;;10.20;83.80;;;;;;5061175;28;20029;-70
2021/05/04 05:59:08;;;;;;;17.20;4.95;;;10.20;83.40;;;;;;5066135;28;20479;-70
2021/05/04 06:01:34;;;;;;;24.30;5.57;;;10.30;82.90;;;;;;5068516;28;20406;-70
2021/05/04 06:03:59;;;;;;;18.35;4.30;;;10.30;82.50;;;;;;5065707;28;20103;-70
2021/05/04 06:06:26;;;;;;;14.38;3.63;;;10.40;82.30;;;;;;5065147;28;20383;-68
2021/05/04 06:08:51;;;;;;;18.60;4.22;;;10.50;82.60;;;;;;5064660;28;20037;-69
2021/05/04 06:11:17;;;;;;;17.63;4.65;;;10.50;82.40;;;;;;5060691;28;20043;-69
2021/05/04 06:13:44;;;;;;;18.83;4.45;;;10.50;82.60;;;;;;5065677;28;20040;-70
2021/05/04 06:16:10;;;;;;;22.10;4.95;;;10.40;83.30;;;;;;5065827;28;20119;-69
2021/05/04 06:18:35;;;;;;;16.10;3.95;;;10.40;83.80;;;;;;5062537;28;20040;-71
2021/05/04 06:21:01;;;;;;;20.27;4.50;;;10.30;84.00;;;;;;5067699;28;20089;-73
2021/05/04 06:23:27;;;;;;;14.57;4.22;;;10.30;83.90;;;;;;5064737;28;20120;-69
2021/05/04 06:25:52;;;;;;;13.95;2.53;;;10.30;83.80;;;;;;5066405;28;20029;-69
2021/05/04 06:28:18;;;;;;;12.55;2.65;;;10.20;82.90;;;;;;5068377;28;20045;-71
2021/05/04 06:30:44;;;;;;;11.15;2.75;;;10.30;83.20;;;;;;5069346;28;20167;-70
2021/05/04 06:33:11;;;;;;;14.10;3.40;;;10.30;83.00;;;;;;5065980;28;20033;-70
2021/05/04 06:35:41;;;;;;;11.60;3.10;;;10.50;83.30;;;;;;5059788;28;20039;-69
2021/05/04 06:38:08;;;;;;;10.75;2.92;;;10.60;82.60;;;;;;5065519;28;20484;-69
2021/05/04 06:40:34;;;;;;;13.15;2.92;;;10.70;82.40;;;;;;5069376;28;20079;-71
2021/05/04 06:43:01;;;;;;;16.02;3.25;;;10.80;81.90;;;;;;5066019;28;20045;-69
2021/05/04 06:45:27;;;;;;;15.68;3.45;;;10.90;81.50;;;;;;5067373;28;20035;-73
2021/05/04 06:47:53;;;;;;;18.45;4.53;;;10.80;81.80;;;;;;5064471;28;20059;-70
2021/05/04 06:50:19;;;;;;;13.75;4.00;;;10.80;81.80;;;;;;5058499;28;20020;-70
2021/05/04 06:52:45;;;;;;;20.00;4.78;;;10.90;82.00;;;;;;5059975;28;20032;-70
2021/05/04 06:55:11;;;;;;;20.25;4.53;;;11.00;80.70;;;;;;5064014;28;20064;-69
2021/05/04 06:57:37;;;;;;;21.77;5.22;;;10.80;80.70;;;;;;5062703;28;20119;-72
2021/05/04 07:00:04;;;;;;;25.17;5.68;;;10.90;80.50;;;;;;5060229;28;20367;-69
2021/05/04 07:02:30;;;;;;;22.67;5.22;;;10.90;80.30;;;;;;5060825;28;20116;-74
2021/05/04 07:04:56;;;;;;;21.67;4.85;;;10.90;79.90;;;;;;5059820;28;20116;-69
2021/05/04 07:07:21;;;;;;;19.00;5.00;;;10.90;79.80;;;;;;5065420;28;20107;-69
2021/05/04 07:09:47;;;;;;;25.73;4.57;;;10.90;79.70;;;;;;5062101;28;20039;-69
2021/05/04 07:12:13;;;;;;;21.92;4.78;;;11.00;79.30;;;;;;5063544;28;20059;-70
2021/05/04 07:14:39;;;;;;;23.73;5.05;;;11.00;78.40;;;;;;5063757;28;20052;-69
2021/05/04 07:17:05;;;;;;;30.13;6.00;;;11.00;77.40;;;;;;5065599;28;20415;-70
2021/05/04 07:19:30;;;;;;;26.65;5.85;;;11.00;77.30;;;;;;5064751;28;20040;-67
2021/05/04 07:21:56;;;;;;;23.52;4.80;;;11.00;76.90;;;;;;5065816;28;20028;-72
2021/05/04 07:24:22;;;;;;;22.10;5.10;;;11.00;76.10;;;;;;5054135;28;20511;-69
2021/05/04 07:26:48;;;;;;;24.17;4.97;;;11.00;76.40;;;;;;5061953;28;20033;-69
2021/05/04 07:29:14;;;;;;;24.92;5.18;;;11.10;76.00;;;;;;5064223;28;20526;-69
2021/05/04 07:31:41;;;;;;;26.52;6.13;;;11.00;75.50;;;;;;5067225;28;20037;-69
2021/05/04 07:34:07;;;;;;;23.23;4.40;;;11.10;75.50;;;;;;5066108;28;20036;-69
2021/05/04 07:36:32;;;;;;;21.00;4.88;;;11.10;74.90;;;;;;5056965;28;20029;-69
2021/05/04 07:38:59;;;;;;;20.45;4.90;;;11.10;74.90;;;;;;5048988;28;20094;-69
2021/05/04 07:41:25;;;;;;;23.35;4.88;;;11.20;74.50;;;;;;5037027;28;20119;-69
2021/05/04 07:43:51;;;;;;;26.23;5.72;;;11.20;74.40;;;;;;5038644;28;20037;-69
2021/05/04 07:46:17;;;;;;;26.52;5.40;;;11.30;73.60;;;;;;5040927;28;20106;-70
2021/05/04 07:48:42;;;;;;;21.10;5.28;;;11.30;74.50;;;;;;5044321;28;20477;-74
2021/05/04 07:51:08;;;;;;;24.65;5.90;;;11.40;74.30;;;;;;5045644;28;20036;-69
2021/05/04 07:53:34;;;;;;;21.27;4.63;;;11.20;75.30;;;;;;5050321;28;20128;-70
2021/05/04 07:56:00;;;;;;;23.23;4.63;;;11.00;77.20;;;;;;5062497;28;20044;-70
2021/05/04 07:58:25;;;;;;;22.10;4.68;;;10.80;78.30;;;;;;5056339;28;20095;-69
2021/05/04 08:00:52;;;;;;;21.30;4.53;;;10.70;78.20;;;;;;5043366;28;20047;-69
2021/05/04 08:03:18;;;;;;;25.55;4.40;;;10.60;77.80;;;;;;5047336;28;20041;-71
2021/05/04 08:05:44;;;;;;;18.40;4.30;;;10.60;77.50;;;;;;5054261;28;20037;-70
2021/05/04 08:08:13;;;;;;;21.65;4.18;;;10.60;76.80;;;;;;5048948;28;20028;-73
2021/05/04 08:10:39;;;;;;;18.65;4.38;;;10.60;75.20;;;;;;5056480;28;20422;-71
2021/05/04 08:13:05;;;;;;;22.75;5.57;;;10.60;73.90;;;;;;5059980;28;20044;-70
2021/05/04 08:15:34;;;;;;;18.83;3.55;;;10.60;74.10;;;;;;5047843;28;20037;-73
2021/05/04 08:18:03;;;;;;;19.30;3.95;;;10.70;73.80;;;;;;5054692;28;20817;-70
2021/05/04 08:20:33;;;;;;;18.45;3.97;;;10.90;73.50;;;;;;5056848;28;20483;-69
2021/05/04 08:23:00;;;;;;;17.20;4.18;;;10.90;73.00;;;;;;5065412;28;20479;-71
2021/05/04 08:25:27;;;;;;;17.58;3.47;;;11.10;72.60;;;;;;5061006;28;20105;-71
2021/05/04 08:27:53;;;;;;;14.90;3.78;;;11.30;71.10;;;;;;5066389;28;20036;-69
2021/05/04 08:30:20;;;;;;;11.65;3.38;;;11.30;70.50;;;;;;5066001;28;20139;-70
2021/05/04 08:32:47;;;;;;;19.13;3.60;;;11.30;69.40;;;;;;5059968;28;20407;-70
2021/05/04 08:35:13;;;;;;;13.10;4.32;;;11.20;69.70;;;;;;5061858;28;20025;-71
2021/05/04 08:37:39;;;;;;;17.85;4.00;;;11.30;70.00;;;;;;5063597;28;20369;-70
2021/05/04 08:40:05;;;;;;;15.45;3.67;;;11.40;68.60;;;;;;5061364;28;20032;-68
2021/05/04 08:42:31;;;;;;;16.05;3.65;;;11.40;68.30;;;;;;5060943;28;20036;-68
2021/05/04 08:45:01;;;;;;;13.02;3.22;;;11.20;69.00;;;;;;5056655;28;20029;-70
2021/05/04 08:47:27;;;;;;;13.48;3.40;;;11.10;68.60;;;;;;5046237;28;20483;-69
2021/05/04 08:49:54;;;;;;;17.20;3.15;;;11.10;69.20;;;;;;5053283;28;20059;-69
2021/05/04 08:52:20;;;;;;;18.08;3.60;;;11.00;69.60;;;;;;5043018;28;20029;-70
2021/05/04 08:54:46;;;;;;;13.32;3.15;;;11.10;68.90;;;;;;5053591;28;20037;-70
2021/05/04 08:57:11;;;;;;;11.13;2.72;;;11.10;67.70;;;;;;5059763;28;20055;-70
2021/05/04 08:59:38;;;;;;;12.05;2.70;;;11.10;66.30;;;;;;5056970;28;20402;-71
2021/05/04 09:02:04;;;;;;;11.27;2.60;;;11.10;65.40;;;;;;5055403;28;20067;-70
2021/05/04 09:04:52;;;;;;;12.85;3.05;;;11.30;65.10;;;;;;5060201;28;20052;-69
2021/05/04 09:07:31;;;;;;;17.88;3.22;;;11.40;63.90;;;;;;5056453;28;20428;-74
2021/05/04 09:10:30;;;;;;;11.07;2.28;;;11.80;63.70;;;;;;5055206;28;20049;-70
2021/05/04 09:13:09;;;;;;;7.88;2.63;;;11.70;61.60;;;;;;5070755;28;20433;-74
2021/05/04 09:18:35;;;;;;;11.40;2.08;;;11.70;62.10;;;;;;5056873;28;20037;-73
2021/05/04 09:21:06;;;;;;;8.60;2.60;;;11.90;62.50;;;;;;5059027;28;20029;-70
2021/05/04 09:23:31;;;;;;;14.48;2.97;;;11.80;61.90;;;;;;5055711;28;20049;-70
2021/05/04 09:25:57;;;;;;;6.85;2.47;;;11.90;62.00;;;;;;5039318;28;20396;-71
2021/05/04 09:28:23;;;;;;;9.43;2.25;;;12.30;61.70;;;;;;5052937;28;20025;-70
2021/05/04 09:30:56;;;;;;;8.32;2.00;;;12.60;58.80;;;;;;5050670;28;20095;-69
2021/05/04 09:33:24;;;;;;;8.65;2.00;;;13.10;57.20;;;;;;5045629;28;20045;-70
2021/05/04 09:35:50;;;;;;;5.97;1.83;;;13.10;57.80;;;;;;5045069;28;20042;-69
2021/05/04 09:38:18;;;;;;;7.95;2.13;;;13.00;57.30;;;;;;5043628;28;20112;-69
2021/05/04 09:40:48;;;;;;;10.98;2.10;;;12.70;57.30;;;;;;5061908;28;20116;-69
2021/05/04 09:43:23;;;;;;;8.07;2.47;;;12.60;58.30;;;;;;5045308;28;20037;-69
2021/05/04 09:45:55;;;;;;;10.52;2.47;;;12.50;59.30;;;;;;5057035;28;20157;-70
2021/05/04 09:48:22;;;;;;;7.68;2.42;;;12.50;59.50;;;;;;5064218;28;20061;-70
2021/05/04 09:51:02;;;;;;;10.52;2.33;;;12.50;58.30;;;;;;5067818;28;20086;-69
2021/05/04 09:56:35;;;;;;;6.78;2.15;;;12.20;58.10;;;;;;5034591;28;20128;-69
2021/05/04 09:59:02;;;;;;;11.95;2.05;;;12.10;58.20;;;;;;5036969;28;20064;-72
2021/05/04 10:01:28;;;;;;;7.75;1.67;;;12.10;57.60;;;;;;5047671;28;20041;-72
2021/05/04 10:03:54;;;;;;;8.13;1.95;;;12.10;58.30;;;;;;5056025;28;20665;-73
2021/05/04 10:06:21;;;;;;;11.07;1.95;;;12.00;58.10;;;;;;5040801;28;20064;-72
2021/05/04 10:08:49;;;;;;;10.18;2.33;;;12.00;58.60;;;;;;5030796;28;20041;-70
2021/05/04 10:11:20;;;;;;;8.88;2.50;;;12.00;58.80;;;;;;5034046;28;20041;-70
2021/05/04 10:13:54;;;;;;;9.75;1.95;;;11.80;59.70;;;;;;5048170;28;20094;-70
2021/05/04 10:16:32;;;;;;;8.88;2.45;;;12.00;59.30;;;;;;5037821;28;20032;-70
2021/05/04 10:18:59;;;;;;;8.35;2.65;;;12.00;59.40;;;;;;5043700;28;20036;-71
2021/05/04 10:21:27;;;;;;;7.32;2.13;;;12.10;58.30;;;;;;5046550;28;20141;-70
2021/05/04 10:23:52;;;;;;;9.48;2.25;;;12.10;57.50;;;;;;5045312;28;20037;-73
2021/05/04 10:26:19;;;;;;;11.98;2.45;;;12.10;57.40;;;;;;5049564;28;20130;-72
2021/05/04 10:28:55;;;;;;;7.78;2.00;;;12.10;57.90;;;;;;5053299;28;20136;-70
2021/05/04 10:31:45;;;;;;;7.53;1.80;;;12.30;56.50;;;;;;5053634;28;20064;-73
2021/05/04 10:34:23;;;;;;;8.05;2.63;;;12.50;55.70;;;;;;5054820;28;20598;-73
2021/05/04 10:36:51;;;;;;;10.60;2.33;;;12.60;54.70;;;;;;5054109;28;20044;-75
2021/05/04 10:39:46;;;;;;;8.60;2.20;;;12.60;56.00;;;;;;5049974;28;20453;-72
2021/05/04 10:42:14;;;;;;;8.02;2.17;;;12.90;56.70;;;;;;5035795;28;20046;-70
2021/05/04 10:44:58;;;;;;;13.57;3.03;;;13.20;56.50;;;;;;5050855;28;20127;-70
2021/05/04 10:47:42;;;;;;;12.40;2.35;;;13.40;56.10;;;;;;5045423;28;20119;-73
2021/05/04 10:50:22;;;;;;;9.32;1.95;;;13.50;53.90;;;;;;5045680;28;20033;-70
2021/05/04 10:52:48;;;;;;;10.73;2.50;;;12.90;53.80;;;;;;5050552;28;20033;-70
2021/05/04 10:55:17;;;;;;;8.32;2.00;;;13.10;55.00;;;;;;5059486;28;20048;-72
2021/05/04 10:58:01;;;;;;;6.05;1.92;;;13.20;55.10;;;;;;5033677;28;20044;-69
2021/05/04 11:03:34;;;;;;;7.65;1.83;;;13.00;53.20;;;;;;5050003;28;20055;-69
2021/05/04 11:06:07;;;;;;;10.43;2.27;;;13.10;53.20;;;;;;5049877;28;20036;-70
2021/05/04 11:08:47;;;;;;;11.23;2.38;;;12.90;54.30;;;;;;5049203;28;20048;-70
2021/05/04 11:11:21;;;;;;;9.52;2.30;;;13.20;53.40;;;;;;5042504;28;20037;-73
2021/05/04 11:13:57;;;;;;;9.10;2.03;;;13.10;53.90;;;;;;5028907;28;20523;-73
2021/05/04 11:16:35;;;;;;;6.97;2.20;;;13.20;54.00;;;;;;5037516;28;20040;-71
2021/05/04 11:19:08;;;;;;;11.90;2.47;;;13.30;54.20;;;;;;5034391;28;20037;-72
2021/05/04 11:21:42;;;;;;;7.65;2.20;;;13.30;53.90;;;;;;5051964;28;20040;-71
2021/05/04 11:24:13;;;;;;;7.63;2.17;;;13.20;52.50;;;;;;5053045;28;20399;-71
2021/05/04 11:26:56;;;;;;;9.75;2.58;;;13.30;53.20;;;;;;5053260;28;20114;-72
2021/05/04 11:29:24;;;;;;;8.98;2.00;;;13.50;54.50;;;;;;5052875;28;20063;-73
2021/05/04 11:31:54;;;;;;;11.48;2.42;;;13.90;53.50;;;;;;5065983;28;20847;-71
2021/05/04 11:34:35;;;;;;;9.50;2.10;;;14.10;52.30;;;;;;5051265;28;20044;-71
2021/05/04 11:37:02;;;;;;;12.10;2.65;;;13.80;52.90;;;;;;5055182;28;20037;-74
2021/05/04 11:39:27;;;;;;;12.10;2.55;;;13.70;52.10;;;;;;5058296;28;20496;-74
2021/05/04 11:41:58;;;;;;;11.00;2.47;;;13.80;52.80;;;;;;5049643;28;20153;-70
2021/05/04 11:44:33;;;;;;;13.02;2.65;;;13.80;52.40;;;;;;5051520;28;20083;-70
2021/05/04 11:47:21;;;;;;;15.80;2.38;;;13.80;52.60;;;;;;5033943;28;20441;-74
2021/05/04 11:49:48;;;;;;;9.00;2.33;;;13.70;52.60;;;;;;5040145;28;21090;-73
2021/05/04 11:52:16;;;;;;;9.13;2.20;;;14.00;53.00;;;;;;5030315;28;20045;-70
2021/05/04 11:54:43;;;;;;;14.02;2.67;;;14.40;51.40;;;;;;5052282;28;20049;-73
2021/05/04 11:57:09;;;;;;;11.73;2.22;;;14.50;51.40;;;;;;5053431;28;20119;-71
2021/05/04 11:59:35;;;;;;;14.40;2.50;;;14.40;51.50;;;;;;5046351;28;20033;-70
2021/05/04 12:02:00;;;;;;;11.57;2.55;;;14.30;51.70;;;;;;5042106;28;20116;-72
2021/05/04 12:04:49;;;;;;;11.15;2.30;;;14.30;51.60;;;;;;5043936;28;20075;-69
2021/05/04 12:07:35;;;;;;;9.52;2.08;;;14.50;51.20;;;;;;5051514;28;20555;-70
2021/05/04 12:10:01;;;;;;;7.82;2.30;;;14.60;50.50;;;;;;5050642;28;20078;-72
2021/05/04 12:12:51;;;;;;;12.80;2.55;;;14.70;51.80;;;;;;5052860;28;20036;-73
2021/05/04 12:15:22;;;;;;;15.32;2.60;;;14.70;52.60;;;;;;5051250;28;20068;-72
2021/05/04 12:18:06;;;;;;;12.40;2.75;;;14.30;52.30;;;;;;5053822;28;20222;-73
2021/05/04 12:20:52;;;;;;;10.88;2.65;;;14.40;53.00;;;;;;5046464;28;20045;-73
2021/05/04 12:23:31;;;;;;;13.40;3.03;;;14.70;51.80;;;;;;5043377;28;20049;-71
2021/05/04 12:26:07;;;;;;;13.85;2.88;;;14.60;53.10;;;;;;5053462;28;20109;-73
2021/05/04 12:28:47;;;;;;;13.60;2.55;;;14.70;52.80;;;;;;5036851;28;20024;-72
2021/05/04 12:31:20;;;;;;;14.10;2.97;;;14.90;52.10;;;;;;5042590;28;20045;-71
2021/05/04 12:33:50;;;;;;;16.15;3.08;;;15.10;51.10;;;;;;5040007;28;20032;-71
2021/05/04 12:36:37;;;;;;;10.13;2.40;;;15.30;51.00;;;;;;5052840;28;20044;-74
2021/05/04 12:39:11;;;;;;;10.27;2.97;;;15.10;49.70;;;;;;5068547;28;20388;-75
2021/05/04 12:41:46;;;;;;;11.25;2.33;;;14.70;50.70;;;;;;5038312;28;20072;-74
2021/05/04 12:46:48;;;;;;;10.45;2.10;;;14.50;52.10;;;;;;5051733;28;20533;-73
2021/05/04 12:49:14;;;;;;;10.20;2.35;;;14.60;52.70;;;;;;5053728;28;20033;-73
2021/05/04 12:51:49;;;;;;;16.90;2.45;;;14.80;51.10;;;;;;5037924;28;20102;-71
2021/05/04 12:54:19;;;;;;;;;;;14.60;50.70;;;;;;5041628;28;20568;-72
2021/05/04 12:56:54;;;;;;;11.27;2.70;;;14.20;51.90;;;;;;5052499;28;20372;-72
2021/05/04 12:59:26;;;;;;;11.85;2.60;;;14.20;51.90;;;;;;5049809;28;20035;-72